• Join FlightAware (Why Join?)
  • Login
  • US Flag 
05:37AM EST


 

Airport Tracker/Info


-or-


 

Live Flight TrackerFlight Track Log ✈ SKW6492 ✈ 13-May-2013 ✈ KAUS - KDEN

Flight Track Log - Related Links

Times and Time Zones

All times are in EDT time to prevent confusion due to time zone crossing. See the SKW6492 flight status page for this flight to view local times or setup timezone preferences in your user account.

Time Position Orientation Groundspeed Altitude Reporting Facility
EDT Latitude Longitude Course Direction KTS MPH feet Rate Location/Type
04:16PM 30.1531 -97.7494 291° West 232 267 5,100  Level Houston Center
04:17PM 30.1933 -97.8189 304° West 251 289 8,100 3,000 Climbing Houston Center
04:18PM 30.5043 -97.9130 291° West  Level FlightAware Approximate
04:18PM 30.2425 -97.8992 305° West 263 303 11,300  Level Houston Center
04:19PM 30.5478 -98.0432 291° West  Level FlightAware Approximate
04:19PM 30.2956 -97.9800 307° West 297 342 13,100  Level Houston Center
04:20PM 30.5912 -98.1734 291° West  Level FlightAware Approximate
04:20PM 30.3481 -98.0639 306° West 320 368 15,900  Level Houston Center
04:21PM 30.6346 -98.3037 291° West  Level FlightAware Approximate
04:21PM 30.4017 -98.1481 306° West 321 369 17,800  Level Houston Center
04:22PM 30.4569 -98.2386 305° West 333 383 19,600 1,800 Climbing Houston Center
04:23PM 30.5158 -98.3336 306° West 350 403 21,600 1,680 Climbing Houston Center
04:24PM 30.5764 -98.4294 306° West 359 413 23,200 1,500 Climbing Houston Center
04:25PM 30.6386 -98.5303 306° West 372 428 24,800 1,740 Climbing Houston Center
04:26PM 30.7342 -98.6275 319° Northwest 393 452 26,900 1,560 Climbing Houston Center
04:27PM 30.8314 -98.6939 330° Northwest 400 460 28,100 1,200 Climbing Houston Center
04:28PM 30.9311 -98.7631 329° Northwest 409 471 29,400 1,200 Climbing Houston Center
04:29PM 31.0314 -98.8333 329° Northwest 415 478 30,600 1,020 Climbing Houston Center
04:30PM 31.1328 -98.9053 329° Northwest 420 483 31,600 1,020 Climbing Houston Center
04:31PM 31.2364 -98.9764 330° Northwest 424 488 32,800 1,200 Climbing Houston Center
04:32PM 31.3389 -99.0475 329° Northwest 423 487 34,100 1,200 Climbing Houston Center
04:33PM 31.4067 -99.0953 329° Northwest 431 496 34,700 1,020 Climbing Fort Worth Center
04:34PM 31.4892 -99.1553 328° Northwest 416 479 35,700 780 Climbing Fort Worth Center
04:35PM 31.5886 -99.2253 329° Northwest 411 473 36,300 600 Climbing Fort Worth Center
04:36PM 31.6878 -99.2981 328° Northwest 411 473 37,000 660 Climbing Fort Worth Center
04:37PM 31.7889 -99.3686 329° Northwest 418 481 37,700 480 Climbing Fort Worth Center
04:38PM 31.8922 -99.4394 330° Northwest 418 481 38,000 120 Climbing Fort Worth Center
04:39PM 31.9911 -99.5125 328° Northwest 423 487 38,000  Level Fort Worth Center
04:40PM 32.0964 -99.5861 329° Northwest 423 487 38,000  Level Fort Worth Center
04:41PM 32.1975 -99.6572 329° Northwest 423 487 38,000  Level Fort Worth Center
04:42PM 32.2983 -99.7336 327° Northwest 423 487 38,000  Level Fort Worth Center
04:43PM 32.4033 -99.8075 329° Northwest 423 487 38,000  Level Fort Worth Center
04:44PM 32.5144 -99.8894 328° Northwest 423 487 38,000  Level Fort Worth Center
04:45PM 32.6322 -99.9567 334° Northwest 429 494 38,000  Level Fort Worth Center
04:46PM 32.7372 -100.0264 331° Northwest 439 505 38,000  Level Fort Worth Center
04:47PM 32.8442 -100.1011 330° Northwest 439 505 38,000  Level Fort Worth Center
04:48PM 32.9511 -100.1689 332° Northwest 439 505 38,000  Level Fort Worth Center
04:49PM 33.0583 -100.2364 332° Northwest 434 499 38,000  Level Fort Worth Center
04:50PM 33.1672 -100.3094 331° Northwest 434 499 38,000  Level Fort Worth Center
04:51PM 33.2761 -100.3800 332° Northwest 434 499 38,000  Level Fort Worth Center
04:52PM 33.3850 -100.4511 331° Northwest 434 499 38,000  Level Fort Worth Center
04:53PM 33.4733 -100.5089 331° Northwest 434 499 38,000  Level Fort Worth Center
04:54PM 33.5925 -100.5853 332° Northwest 434 499 38,000  Level Fort Worth Center
04:55PM 33.7014 -100.6592 331° Northwest 434 499 38,000  Level Fort Worth Center
04:56PM 33.8119 -100.7333 331° Northwest 445 512 38,000  Level Fort Worth Center
04:57PM 33.9228 -100.8100 330° Northwest 456 525 38,000  Level Fort Worth Center
04:59PM 34.1317 -100.9436 332° Northwest 454 522 38,000  Level Albuquerque Center
05:00PM 34.2419 -101.0186 331° Northwest 456 525 38,000  Level Albuquerque Center
05:01PM 34.3536 -101.0936 331° Northwest 458 527 38,000  Level Albuquerque Center
05:02PM 34.4642 -101.1694 331° Northwest 457 526 38,000  Level Albuquerque Center
05:03PM 34.5964 -101.2594 331° Northwest 456 525 38,000  Level Albuquerque Center
05:04PM 34.7067 -101.3342 331° Northwest 454 522 38,000  Level Albuquerque Center
05:05PM 34.8156 -101.4083 331° Northwest 450 518 38,000  Level Albuquerque Center
05:06PM 34.9247 -101.4833 331° Northwest 451 519 38,000  Level Albuquerque Center
05:07PM 35.0336 -101.5575 331° Northwest 455 524 38,000  Level Albuquerque Center
05:08PM 35.1444 -101.6333 331° Northwest 456 525 38,000  Level Albuquerque Center
05:09PM 35.2739 -101.7153 333° Northwest 455 524 38,000  Level Albuquerque Center
05:10PM 35.3883 -101.7672 340° North 441 507 38,000  Level Albuquerque Center
05:11PM 35.5058 -101.8219 339° North 440 506 38,000  Level Albuquerque Center
05:12PM 35.6117 -101.8719 339° North 441 507 38,000  Level Albuquerque Center
05:13PM 35.7494 -101.9361 339° North 442 509 38,000  Level Albuquerque Center
05:14PM 35.8658 -101.9906 339° North 444 511 38,000  Level Albuquerque Center
05:15PM 35.9806 -102.0436 339° North 443 510 38,000  Level Albuquerque Center
05:16PM 36.0961 -102.0975 339° North 443 510 38,000  Level Albuquerque Center
05:17PM 36.2117 -102.1517 339° North 443 510 38,000  Level Albuquerque Center
05:18PM 36.3283 -102.2056 340° North 447 514 38,000  Level Albuquerque Center
05:19PM 36.4442 -102.2611 339° North 446 513 38,000  Level Albuquerque Center
05:20PM 36.5825 -102.3272 339° North 444 511 38,000  Level Albuquerque Center
05:21PM 36.6997 -102.3828 339° North 449 517 38,000  Level Albuquerque Center
05:22PM 36.8164 -102.4397 339° North 450 518 38,000  Level Albuquerque Center
05:23PM 36.9331 -102.4950 339° North 449 517 38,000 -360 Level Albuquerque Center
05:24PM 37.0633 -102.5581 339° North 449 517 37,300 -840 Descending Albuquerque Center
05:25PM 37.1733 -102.6117 339° North 446 513 36,300 -660 Descending Albuquerque Center
05:26PM 37.2853 -102.6653 339° North 447 514 36,000 -180 Descending Albuquerque Center
05:27PM 37.4125 -102.7275 339° North 443 510 36,000 -60 Level Albuquerque Center
05:28PM 37.5025 -102.7706 339° North 439 505 35,900 -720 Descending Denver Center
05:29PM 37.6364 -102.8153 345° North 445 512 34,700 -960 Descending Denver Center
05:30PM 37.7503 -102.8517 346° North 444 511 34,000 -360 Descending Denver Center
05:31PM 37.8769 -102.9233 336° Northwest 450 518 34,000  Level Denver Center
05:32PM 37.9792 -103.0078 327° Northwest 457 526 34,000  Level Denver Center
05:33PM 38.0992 -103.1117 326° Northwest 453 521 34,000  Level Denver Center
05:34PM 38.1958 -103.1953 326° Northwest 458 527 34,000  Level Denver Center
05:35PM 38.3144 -103.2956 326° Northwest 460 529 34,000 -600 Level Denver Center
05:37PM 38.4169 -103.3844 326° Northwest 446 513 32,700 -1,500 Descending Denver Center
05:38PM 38.5319 -103.4836 326° Northwest 409 471 30,600 -1,680 Descending Denver Center
05:39PM 38.6186 -103.5578 326° Northwest 395 455 29,300 -1,440 Descending Denver Center
05:40PM 38.7167 -103.6442 326° Northwest 385 443 27,700 -1,440 Descending Denver Center
05:41PM 38.8000 -103.7167 326° Northwest 379 436 26,300 -1,500 Descending Denver Center
05:42PM 38.8942 -103.8011 325° Northwest 373 429 24,700 -1,560 Descending Denver Center
05:43PM 38.9728 -103.8692 326° Northwest 361 415 23,200 -1,560 Descending Denver Center
05:44PM 39.0606 -103.9483 325° Northwest 348 400 21,500 -1,500 Descending Denver Center
05:45PM 39.1342 -104.0125 326° Northwest 341 392 20,100 -1,500 Descending Denver Center
05:46PM 39.2186 -104.0831 327° Northwest 332 382 18,500 -1,560 Descending Denver Center
05:47PM 39.2719 -104.1786 306° West 320 368 16,900 -1,620 Descending Denver Center
05:48PM 39.2964 -104.2842 287° West 307 353 15,200 -1,440 Descending Denver Center
05:49PM 39.3211 -104.3917 287° West 295 339 14,000 -780 Descending Denver Center
05:50PM 39.3408 -104.4814 286° West 265 305 13,700 -720 Descending Denver Center
05:51PM 39.3714 -104.5653 295° West 261 300 12,600 -1,080 Descending Denver Center
05:52PM 39.4258 -104.6300 317° Northwest 259 298 11,500 -960 Descending Denver Center
05:53PM 39.4911 -104.6658 337° Northwest 255 293 10,500 -720 Descending Denver Center
05:54PM 39.5761 -104.6636 North 248 285 10,000 -540 Descending Denver Center